Carveacre (1166, 625) Station Data

Red Flag Warning: No
Fire Weather Zone: 251
SDGE Region: Eastern
Lat/Lon: 32.784/-116.723

Observations

Time Wind Speed/Gust Temp(F) RH Fuel Moist Fuel Temp(F) Dewpt(F) Tmax(F) Tmin(F) Accum Precip 10-min Precip SL Press(mb)
5/24 8:30am 138 3 G 6 73° 27% - - 37° 73.6° 54.4° - - -
5/24 8:20am 129 4 G 7 72° 28% - - 37° 72.9° 54.4° - - -
5/24 8:10am 120 5 G 8 69° 32% - - 38° 71° 54.4° - - -
5/24 8:00am 244 1 G 5 66° 47% - - 45° 67.3° 54.4° - - -
5/24 7:50am 52 2 G 5 64° 52% - - 46° 67.3° 54.4° - - -
5/24 7:40am 122 2 G 5 64° 49% - - 44° 67.3° 54.4° - - -
5/24 7:30am 133 4 G 7 62° 50% - - 43° 67.3° 54.4° - - -
5/24 7:20am 117 5 G 8 59° 58% - - 44° 67.3° 54.4° - - -
5/24 7:10am 83 2 G 5 56° 77% - - 49° 67.3° 54.4° - - -
5/24 7:00am 329 2 G 5 55° 81% - - 49° 67.3° 54.4° - - -
5/24 6:50am 289 3 G 6 56° 72% - - 47° 67.3° 54.6° - - -
5/24 6:40am 280 3 G 6 59° 48% - - 39° 67.3° 56.9° - - -
5/24 6:30am 296 2 G 5 64° 31% - - 32° 67.3° 59.2° - - -
5/24 6:20am 116 3 G 5 67° 24% - - 29° 67.3° 59.2° - - -
5/24 6:10am 132 5 G 8 66° 25% - - 29° 67.3° 59.2° - - -
5/24 6:00am 133 5 G 8 66° 25% - - 29° 67.1° 59.2° - - -
5/24 5:50am 128 5 G 9 66° 24% - - 29° 67.1° 59.2° - - -
5/24 5:40am 132 5 G 8 65° 27% - - 30° 67.1° 59.2° - - -
5/24 5:30am 130 5 G 7 66° 25% - - 29° 67.1° 59.2° - - -
5/24 5:20am 132 6 G 8 65° 26% - - 30° 67.1° 59.2° - - -
5/24 5:10am 128 4 G 7 63° 31% - - 32° 67.1° 59.2° - - -
5/24 5:00am 137 6 G 9 64° 30% - - 32° 67.1° 59.2° - - -
5/24 4:50am 127 7 G 9 62° 34% - - 33° 67.1° 59.2° - - -
5/24 4:40am 123 6 G 9 61° 37% - - 34° 67.1° 59.2° - - -
5/24 4:30am 124 3 G 7 63° 35% - - 35° 67.1° 59.2° - - -
5/24 4:20am 108 4 G 6 61° 40% - - 36° 67.1° 59.2° - - -
5/24 4:10am 110 2 G 6 62° 42% - - 38° 67.1° 59.2° - - -
5/24 4:00am 94 2 G 3 61° 52% - - 43° 67.1° 59.2° - - -
5/24 3:50am 315 1 G 2 61° 51% - - 43° 67.1° 59.2° - - -
5/24 3:40am 136 1 G 3 63° 44% - - 41° 67.1° 61.8° - - -
5/24 3:30am 141 3 G 7 62° 44% - - 40° 67.1° 61.8° - - -
5/24 3:20am 112 2 G 7 64° 43% - - 41° 67.1° 61.8° - - -
5/24 3:10am 122 1 G 4 66° 41% - - 41° 67.1° 63.5° - - -
5/24 3:00am 115 2 G 4 65° 42% - - 41° 67.1° 63.6° - - -
5/24 2:50am 101 2 G 5 66° 41% - - 42° 67.1° 63.6° - - -
5/24 2:40am 118 4 G 7 66° 41% - - 42° 67.1° 63.6° - - -
5/24 2:30am 126 5 G 7 65° 43% - - 42° 67.1° 63.6° - - -
5/24 2:20am 126 5 G 7 66° 42% - - 42° 67.1° 63.6° - - -
5/24 2:10am 127 5 G 8 66° 43% - - 42° 67.1° 63.6° - - -
5/24 2:00am 121 6 G 9 66° 43% - - 43° 67.1° 63.6° - - -
5/24 1:50am 115 3 G 7 65° 44% - - 43° 67.1° 63.6° - - -
5/24 1:40am 100 3 G 7 66° 43% - - 43° 67.1° 63.6° - - -
5/24 1:30am 86 3 G 5 66° 45% - - 44° 67.1° 63.6° - - -
5/24 1:20am 102 5 G 8 67° 45% - - 45° 67.1° 63.6° - - -
5/24 1:10am 123 5 G 8 65° 47% - - 45° 67° 63.6° - - -
5/24 1:00am 92 4 G 7 67° 49% - - 47° 67° 63.6° - - -
5/24 12:50am 110 3 G 7 65° 52% - - 48° 65.9° 63.6° - - -
5/24 12:40am 122 4 G 7 65° 53% - - 48° 65.9° 63.6° - - -
5/24 12:30am 112 3 G 5 64° 56% - - 48° 65.2° 63.6° - - -
5/24 12:20am 92 1 G 5 65° 56% - - 49° 65.2° 64.2° - - -
5/24 12:10am 49 1 G 2 64° 57% - - 49° 64.9° 64.2° - - -
5/24 12:00am 27 1 G 3 65° 55% - - 49° 88.8° 61.9° - - -
5/23 11:50pm 134 3 G 6 65° 54% - - 48° 88.8° 61.9° - - -
5/23 11:40pm 120 4 G 8 65° 55% - - 48° 88.8° 61.9° - - -
5/23 11:30pm 95 3 G 5 66° 54% - - 49° 88.8° 61.9° - - -
5/23 11:20pm 105 3 G 5 67° 53% - - 49° 88.8° 61.9° - - -
5/23 11:10pm 121 4 G 6 66° 54% - - 49° 88.8° 61.9° - - -
5/23 11:00pm 126 4 G 6 65° 55% - - 49° 88.8° 61.9° - - -
5/23 10:50pm 116 4 G 7 67° 54% - - 50° 88.8° 61.9° - - -
5/23 10:40pm 119 4 G 7 66° 57% - - 50° 88.8° 61.9° - - -
5/23 10:30pm 120 4 G 5 67° 56% - - 51° 88.8° 61.9° - - -
5/23 10:20pm 114 4 G 6 66° 57% - - 51° 88.8° 61.9° - - -
5/23 10:10pm 109 3 G 5 67° 56% - - 51° 88.8° 61.9° - - -
5/23 10:00pm 115 4 G 6 67° 55% - - 51° 88.8° 61.9° - - -
5/23 9:50pm 111 3 G 5 68° 55% - - 51° 88.8° 61.9° - - -
5/23 9:40pm 129 0 G 3 68° 55% - - 52° 88.8° 61.9° - - -
5/23 9:30pm 131 2 G 4 68° 55% - - 51° 88.8° 61.9° - - -
5/23 9:20pm 128 2 G 3 68° 54% - - 51° 88.8° 61.9° - - -
5/23 9:10pm 131 1 G 3 69° 55% - - 52° 88.8° 61.9° - - -
5/23 9:00pm 21 1 G 2 70° 54% - - 52° 88.8° 61.9° - - -
5/23 8:50pm 18 1 G 3 70° 53% - - 52° 88.8° 61.9° - - -
5/23 8:40pm 82 1 G 2 71° 50% - - 51° 88.8° 61.9° - - -
5/23 8:30pm 118 1 G 2 71° 49% - - 51° 88.8° 61.9° - - -
5/23 8:20pm 221 0 G 1 71° 49% - - 51° 88.8° 61.9° - - -
5/23 8:10pm 141 1 G 3 72° 48% - - 51° 88.8° 61.9° - - -
5/23 8:00pm 137 2 G 4 72° 49% - - 51° 88.8° 61.9° - - -
5/23 7:50pm 129 2 G 3 73° 46% - - 51° 88.8° 61.9° - - -
5/23 7:40pm 254 1 G 1 75° 42% - - 50° 88.8° 61.9° - - -
5/23 7:30pm 235 2 G 4 75° 42% - - 50° 88.8° 61.9° - - -
5/23 7:20pm 271 3 G 5 76° 40% - - 50° 88.8° 61.9° - - -
5/23 7:10pm 304 3 G 6 77° 39% - - 50° 88.8° 61.9° - - -
5/23 7:00pm 300 4 G 8 77° 38% - - 49° 88.8° 61.9° - - -
5/23 6:50pm 302 5 G 10 78° 36% - - 49° 88.8° 61.9° - - -
5/23 6:40pm 301 5 G 10 79° 34% - - 48° 88.8° 61.9° - - -
5/23 6:30pm 301 6 G 11 80° 33% - - 48° 88.8° 61.9° - - -
5/23 6:20pm 298 5 G 11 81° 31% - - 48° 88.8° 61.9° - - -
5/23 6:10pm 277 7 G 11 82° 29% - - 47° 88.8° 61.9° - - -
5/23 6:00pm 269 7 G 11 83° 28% - - 46° 88.8° 61.9° - - -
5/23 5:50pm 260 7 G 12 83° 27% - - 46° 88.8° 61.9° - - -
5/23 5:40pm 261 7 G 11 84° 27% - - 46° 88.8° 61.9° - - -
5/23 5:30pm 267 6 G 11 84° 27% - - 46° 88.8° 61.9° - - -
5/23 5:20pm 258 6 G 12 84° 27% - - 46° 88.8° 61.9° - - -
5/23 5:10pm 256 5 G 8 83° 27% - - 46° 88.8° 61.9° - - -
5/23 5:00pm 255 5 G 11 83° 28% - - 46° 88.8° 61.9° - - -
5/23 4:50pm 260 6 G 11 82° 28% - - 46° 88.8° 61.9° - - -
5/23 4:40pm 255 6 G 11 83° 27% - - 45° 88.8° 61.9° - - -
5/23 4:30pm 264 7 G 10 83° 28% - - 46° 88.8° 61.9° - - -
5/23 4:20pm 264 7 G 12 82° 29% - - 47° 88.8° 61.9° - - -
5/23 4:10pm 257 7 G 12 82° 31% - - 48° 88.8° 61.9° - - -
5/23 4:00pm 266 6 G 11 82° 31% - - 49° 88.8° 61.9° - - -
5/23 3:50pm 255 7 G 12 81° 32% - - 49° 88.8° 61.9° - - -
5/23 3:40pm 266 6 G 12 81° 34% - - 50° 88.8° 61.9° - - -
5/23 3:30pm 266 6 G 11 80° 37% - - 51° 88.8° 61.9° - - -
5/23 3:20pm 289 5 G 10 80° 38% - - 52° 88.8° 61.9° - - -
5/23 3:10pm 282 7 G 13 79° 40% - - 53° 88.8° 61.9° - - -
5/23 3:00pm 286 8 G 14 80° 40% - - 53° 88.8° 61.9° - - -
5/23 2:50pm 285 7 G 13 80° 40% - - 53° 88.8° 61.9° - - -
5/23 2:40pm 279 8 G 12 79° 40% - - 53° 88.8° 61.9° - - -
5/23 2:30pm 285 7 G 14 80° 39% - - 53° 88.8° 61.9° - - -
5/23 2:20pm 294 6 G 12 80° 38% - - 53° 88.8° 61.9° - - -
5/23 2:10pm 285 7 G 13 80° 38% - - 52° 88.8° 61.9° - - -
5/23 2:00pm 288 8 G 13 80° 38% - - 52° 88.8° 61.9° - - -
5/23 1:50pm 297 7 G 14 80° 38% - - 52° 88.8° 61.9° - - -
5/23 1:40pm 285 7 G 14 81° 37% - - 52° 88.8° 61.9° - - -
5/23 1:30pm 287 7 G 13 81° 38% - - 52° 88.8° 61.9° - - -
5/23 1:20pm 297 8 G 13 81° 38% - - 52° 88.8° 61.9° - - -
5/23 1:10pm 297 8 G 13 81° 36% - - 52° 88.8° 61.9° - - -
5/23 1:00pm 296 8 G 14 82° 34% - - 51° 88.8° 61.9° - - -
5/23 12:50pm 290 9 G 16 82° 33% - - 50° 88.8° 61.9° - - -
5/23 12:40pm 289 8 G 15 84° 30% - - 49° 88.8° 61.9° - - -
5/23 12:30pm 277 9 G 13 84° 27% - - 47° 88.8° 61.9° - - -
5/23 12:20pm 277 8 G 14 85° 25% - - 45° 88.8° 61.9° - - -
5/23 12:10pm 285 7 G 12 85° 22% - - 43° 88.8° 61.9° - - -
5/23 12:00pm 290 8 G 14 85° 21% - - 41° 88.8° 61.9° - - -
5/23 11:50am 283 8 G 13 86° 19% - - 38° 88.8° 61.9° - - -
5/23 11:40am 283 8 G 14 86° 18% - - 38° 88.8° 61.9° - - -
5/23 11:30am 297 7 G 14 87° 17% - - 37° 88.8° 61.9° - - -
5/23 11:20am 296 8 G 14 88° 16% - - 36° 88.8° 61.9° - - -
5/23 11:10am 290 6 G 11 88° 14% - - 33° 88.8° 61.9° - - -
5/23 11:00am 282 5 G 9 88° 14% - - 33° 88.3° 61.9° - - -
5/23 10:50am 276 5 G 10 87° 14% - - 33° 87.8° 61.9° - - -
5/23 10:40am 280 4 G 8 87° 15% - - 33° 87.4° 61.9° - - -
5/23 10:30am 269 4 G 8 86° 15% - - 34° 87.1° 61.9° - - -
5/23 10:20am 297 3 G 7 86° 16% - - 34° 86.9° 61.9° - - -
5/23 10:10am 293 3 G 6 85° 16% - - 34° 85.7° 61.9° - - -
5/23 10:00am 269 4 G 6 85° 16% - - 34° 85.2° 61.9° - - -
5/23 9:50am 273 2 G 4 84° 17% - - 34° 84.7° 61.9° - - -
5/23 9:40am 241 2 G 4 84° 18% - - 35° 84.4° 61.9° - - -
5/23 9:30am 258 1 G 4 84° 19% - - 37° 84.4° 61.9° - - -
5/23 9:20am 263 1 G 2 82° 22% - - 39° 82.9° 61.9° - - -
5/23 9:10am 281 2 G 4 79° 25% - - 40° 80.3° 61.9° - - -
5/23 9:00am 273 1 G 4 79° 25% - - 41° 80° 61.9° - - -
5/23 8:50am 280 1 G 2 78° 26% - - 40° 78.8° 61.9° - - -
5/23 8:40am 279 1 G 2 77° 27% - - 40° 77.5° 61.9° - - -
5/23 8:30am 265 1 G 2 76° 27% - - 40° 76.6° 61.9° - - -
5/23 8:20am 277 1 G 2 75° 27% - - 39° 76.6° 61.9° - - -
5/23 8:10am 250 0 G 0 75° 27% - - 39° 76.4° 61.9° - - -
5/23 8:00am 268 0 G 1 75° 26% - - 37° 75.3° 61.9° - - -
5/23 7:50am 150 0 G 1 73° 27% - - 36° 75.2° 61.9° - - -
5/23 7:40am 119 1 G 2 70° 31% - - 38° 71.1° 61.9° - - -
5/23 7:30am 137 1 G 3 68° 32% - - 37° 71.1° 61.9° - - -
5/23 7:20am 294 1 G 2 68° 31% - - 37° 71.1° 61.9° - - -
5/23 7:10am 112 1 G 2 70° 28% - - 35° 71.1° 61.9° - - -
5/23 7:00am 81 1 G 2 69° 28% - - 34° 71.1° 61.9° - - -
5/23 6:50am 118 2 G 5 70° 26% - - 33° 71.1° 61.9° - - -
5/23 6:40am 107 2 G 5 69° 25% - - 31° 70.3° 61.9° - - -
5/23 6:30am 105 1 G 3 66° 27% - - 31° 68.6° 61.9° - - -
5/23 6:20am 36 0 G 2 66° 27% - - 31° 68.6° 61.9° - - -
5/23 6:10am 121 3 G 4 66° 26% - - 31° 68.6° 61.9° - - -
5/23 6:00am 124 3 G 5 67° 25% - - 30° 68.6° 61.9° - - -